createdAt,value
2022-08-22T00:00:13.659Z,4.25
2022-08-22T00:02:44.477Z,4.78
2022-08-22T00:02:58.379Z,4.72
2022-08-22T00:02:59.281Z,5.15
2022-08-22T00:03:00.129Z,4.80
2022-08-22T00:03:33.999Z,4.05
2022-08-22T00:06:46.620Z,3.72
2022-08-22T00:10:01.599Z,4.00
2022-08-22T00:13:08.671Z,4.72
2022-08-22T00:16:17.761Z,3.80
2022-08-22T00:19:31.799Z,3.38
2022-08-22T00:22:41.225Z,4.00
2022-08-22T00:25:51.312Z,3.92
2022-08-22T00:29:01.627Z,3.30
2022-08-22T00:32:11.358Z,3.65
2022-08-22T00:35:24.487Z,4.15
2022-08-22T00:38:31.389Z,4.32
2022-08-22T00:42:00.741Z,3.03
2022-08-22T00:45:25.292Z,4.20
2022-08-22T00:48:56.948Z,3.40
2022-08-22T00:52:55.184Z,4.22
2022-08-22T00:56:16.003Z,3.83
2022-08-22T00:59:56.151Z,3.70
2022-08-22T01:03:38.407Z,3.30
2022-08-22T01:06:51.764Z,3.40
2022-08-22T01:10:10.416Z,3.37
2022-08-22T01:13:38.415Z,3.50
2022-08-22T01:16:58.360Z,3.63
2022-08-22T01:20:38.592Z,3.03
2022-08-22T01:24:27.933Z,3.40
2022-08-22T01:28:13.858Z,3.00
2022-08-22T01:31:56.668Z,3.67
2022-08-22T01:35:16.706Z,3.90
2022-08-22T01:38:37.942Z,3.90
2022-08-22T01:42:04.998Z,3.63
2022-08-22T01:45:47.703Z,3.47
2022-08-22T01:48:54.401Z,3.37
2022-08-22T01:52:05.548Z,3.20
2022-08-22T01:55:12.976Z,3.57
2022-08-22T01:58:21.080Z,3.30
2022-08-22T02:01:35.655Z,2.97
2022-08-22T02:04:44.459Z,3.43
2022-08-22T02:07:55.576Z,3.00
2022-08-22T02:11:04.175Z,2.97
2022-08-22T02:14:19.778Z,3.53
2022-08-22T02:17:27.183Z,3.30
2022-08-22T02:20:34.847Z,3.73
2022-08-22T02:23:51.672Z,3.40
2022-08-22T02:27:07.931Z,3.40
2022-08-22T02:30:15.100Z,2.93
2022-08-22T02:33:30.977Z,3.17
2022-08-22T02:36:46.988Z,3.47
2022-08-22T02:40:02.776Z,3.43
2022-08-22T02:43:15.403Z,3.20
2022-08-22T02:46:26.003Z,3.60
2022-08-22T02:49:43.961Z,3.10
2022-08-22T02:52:58.579Z,3.93
2022-08-22T02:56:07.275Z,3.57
2022-08-22T02:59:30.580Z,3.40
2022-08-22T03:02:38.453Z,3.50
2022-08-22T03:05:52.180Z,3.20
2022-08-22T03:09:06.597Z,3.40
2022-08-22T03:12:21.193Z,3.40
2022-08-22T03:15:29.975Z,3.33
2022-08-22T03:18:45.760Z,3.40
2022-08-22T03:21:56.758Z,3.27
2022-08-22T03:25:11.113Z,3.23
2022-08-22T03:28:21.319Z,3.37
2022-08-22T03:31:26.782Z,3.57
2022-08-22T03:34:29.906Z,3.33
2022-08-22T03:37:40.534Z,3.03
2022-08-22T03:40:54.528Z,3.30
2022-08-22T03:44:19.082Z,2.53
2022-08-22T03:47:50.033Z,3.40
2022-08-22T03:51:37.860Z,3.77
2022-08-22T03:54:58.858Z,3.40
2022-08-22T03:58:29.571Z,4.03
2022-08-22T04:02:35.219Z,3.40
2022-08-22T04:05:54.286Z,3.80
2022-08-22T04:09:27.384Z,3.53
2022-08-22T04:13:12.648Z,3.73
2022-08-22T04:16:33.019Z,3.20
2022-08-22T04:20:16.642Z,3.60
2022-08-22T04:23:43.315Z,3.83
2022-08-22T04:26:51.712Z,3.13
2022-08-22T04:30:02.919Z,3.40
2022-08-22T04:33:11.086Z,3.30
2022-08-22T04:36:20.674Z,2.93
2022-08-22T04:39:36.743Z,3.50
2022-08-22T04:42:46.704Z,4.90
2022-08-22T04:45:56.709Z,3.90
2022-08-22T04:49:06.021Z,3.33
2022-08-22T04:52:19.513Z,3.50
2022-08-22T04:55:35.215Z,3.50
2022-08-22T04:58:59.123Z,3.30
2022-08-22T05:02:06.340Z,3.33
2022-08-22T05:05:14.012Z,3.53
2022-08-22T05:08:23.776Z,3.70
2022-08-22T05:11:27.805Z,3.40
2022-08-22T05:14:39.913Z,3.67
2022-08-22T05:17:44.891Z,3.47
2022-08-22T05:20:50.459Z,3.53
2022-08-22T05:23:59.217Z,3.50
2022-08-22T05:27:10.125Z,3.93
2022-08-22T05:30:21.708Z,3.47
2022-08-22T05:33:28.939Z,4.33
2022-08-22T05:36:36.592Z,5.00
2022-08-22T05:39:46.929Z,5.10
2022-08-22T05:42:50.509Z,4.10
2022-08-22T05:45:57.146Z,4.50
2022-08-22T05:49:03.169Z,4.63
2022-08-22T05:52:15.934Z,4.70
2022-08-22T05:55:28.519Z,4.87
2022-08-22T05:58:45.715Z,5.97
2022-08-22T06:02:00.851Z,5.37
2022-08-22T06:05:11.769Z,5.33
2022-08-22T06:08:21.304Z,5.37
2022-08-22T06:11:33.767Z,5.27
2022-08-22T06:14:43.981Z,4.60
2022-08-22T06:17:50.734Z,5.40
2022-08-22T06:20:57.318Z,6.00
2022-08-22T06:24:02.173Z,5.10
2022-08-22T06:27:11.246Z,5.53
2022-08-22T06:30:16.666Z,5.60
2022-08-22T06:33:25.178Z,4.47
2022-08-22T06:36:31.841Z,5.13
2022-08-22T06:39:36.519Z,5.77
2022-08-22T06:42:45.643Z,6.03
2022-08-22T06:45:49.626Z,5.80
2022-08-22T06:48:55.268Z,6.17
2022-08-22T06:52:02.350Z,6.10
2022-08-22T06:55:08.803Z,6.67
2022-08-22T06:58:18.373Z,6.63
2022-08-22T07:01:24.804Z,5.83
2022-08-22T07:04:29.138Z,5.93
2022-08-22T07:07:32.480Z,5.90
2022-08-22T07:10:35.778Z,6.07
2022-08-22T07:13:44.120Z,6.27
2022-08-22T07:16:55.137Z,6.03
2022-08-22T07:20:03.773Z,5.15
2022-08-22T07:23:10.386Z,5.78
2022-08-22T07:26:23.202Z,5.20
2022-08-22T07:29:36.079Z,4.18
2022-08-22T07:32:56.483Z,4.90
2022-08-22T07:36:31.070Z,5.40
2022-08-22T07:39:39.556Z,3.95
2022-08-22T07:42:48.059Z,3.83
2022-08-22T07:45:54.630Z,4.05
2022-08-22T07:49:10.077Z,5.15
2022-08-22T07:52:14.847Z,4.22
2022-08-22T07:55:20.353Z,4.57
2022-08-22T07:58:27.967Z,4.15
2022-08-22T08:01:31.701Z,3.55
2022-08-22T08:04:40.581Z,3.33
2022-08-22T08:07:46.116Z,3.38
2022-08-22T08:10:50.848Z,3.42
2022-08-22T08:13:57.859Z,2.60
2022-08-22T08:17:05.118Z,2.88
2022-08-22T08:20:12.600Z,2.25
2022-08-22T08:23:22.211Z,2.47
2022-08-22T08:26:33.404Z,2.47
2022-08-22T08:29:37.030Z,2.33
2022-08-22T08:32:42.393Z,2.10
2022-08-22T08:36:02.273Z,2.72
2022-08-22T08:39:17.553Z,2.85
2022-08-22T08:43:11.046Z,2.70
2022-08-22T08:46:50.209Z,2.42
2022-08-22T08:50:20.623Z,2.58
2022-08-22T08:53:50.903Z,2.03
2022-08-22T08:57:07.210Z,2.10
2022-08-22T09:00:15.833Z,1.58
2022-08-22T09:03:38.067Z,1.60
2022-08-22T09:07:25.980Z,2.05
2022-08-22T09:10:45.250Z,1.35
2022-08-22T09:14:00.343Z,1.48
2022-08-22T09:17:23.328Z,2.08
2022-08-22T09:20:50.574Z,1.55
2022-08-22T09:24:26.810Z,1.92
2022-08-22T09:27:36.266Z,1.60
2022-08-22T09:30:54.411Z,1.42
2022-08-22T09:34:05.236Z,1.50
2022-08-22T09:40:16.080Z,1.52
2022-08-22T09:40:45.938Z,2.50
2022-08-22T09:44:04.473Z,1.73
2022-08-22T09:47:17.642Z,1.58
2022-08-22T09:50:35.129Z,1.65
2022-08-22T09:53:53.026Z,1.65
2022-08-22T09:57:03.273Z,1.48
2022-08-22T10:00:22.650Z,2.00
2022-08-22T10:03:53.627Z,1.80
2022-08-22T10:07:12.213Z,2.20
2022-08-22T10:10:32.288Z,1.50
2022-08-22T10:14:00.458Z,1.35
2022-08-22T10:17:12.559Z,1.88
2022-08-22T10:20:21.963Z,1.42
2022-08-22T10:23:31.027Z,1.45
2022-08-22T10:26:43.424Z,1.27
2022-08-22T10:30:02.666Z,1.48
2022-08-22T10:33:14.790Z,1.48
2022-08-22T10:36:23.554Z,1.27
2022-08-22T10:39:39.903Z,1.85
2022-08-22T10:42:53.648Z,1.27
2022-08-22T10:46:04.399Z,1.60
2022-08-22T10:49:16.483Z,1.80
2022-08-22T10:52:26.271Z,0.98
2022-08-22T10:55:31.243Z,1.45
2022-08-22T10:58:40.013Z,1.30
2022-08-22T11:01:52.997Z,1.98
2022-08-22T11:05:16.270Z,1.60
2022-08-22T11:08:33.069Z,1.38
2022-08-22T11:11:44.706Z,1.13
2022-08-22T11:15:05.684Z,1.20
2022-08-22T11:18:21.494Z,1.05
2022-08-22T11:21:32.788Z,1.40
2022-08-22T11:25:04.222Z,1.10
2022-08-22T11:28:43.578Z,1.33
2022-08-22T11:32:05.827Z,1.15
2022-08-22T11:35:22.687Z,1.20
2022-08-22T11:38:36.138Z,0.80
2022-08-22T11:41:45.021Z,1.02
2022-08-22T11:44:58.629Z,1.50
2022-08-22T11:48:09.749Z,0.90
2022-08-22T11:51:24.987Z,1.27
2022-08-22T11:54:38.237Z,0.80
2022-08-22T11:57:48.334Z,1.10
2022-08-22T12:00:57.678Z,0.80
2022-08-22T12:04:12.901Z,1.25
2022-08-22T12:07:19.679Z,1.00
2022-08-22T12:10:28.607Z,1.00
2022-08-22T12:13:47.480Z,1.30
2022-08-22T12:17:05.708Z,1.35
2022-08-22T12:20:22.651Z,1.02
2022-08-22T12:24:19.157Z,1.33
2022-08-22T12:27:39.216Z,0.85
2022-08-22T12:31:00.836Z,1.02
2022-08-22T12:34:19.488Z,0.93
2022-08-22T12:37:29.312Z,0.85
2022-08-22T12:40:46.129Z,0.68
2022-08-22T12:44:00.475Z,1.02
2022-08-22T12:47:17.605Z,1.05
2022-08-22T12:50:32.608Z,0.93
2022-08-22T12:54:00.280Z,0.75
2022-08-22T12:57:23.732Z,1.02
2022-08-22T13:00:34.635Z,0.95
2022-08-22T13:03:44.976Z,0.75
2022-08-22T13:06:53.730Z,0.88
2022-08-22T13:10:01.824Z,0.90
2022-08-22T13:13:12.129Z,1.15
2022-08-22T13:16:19.558Z,0.98
2022-08-22T13:19:25.742Z,5.18
2022-08-22T13:22:33.138Z,2.60
2022-08-22T13:25:57.618Z,0.85
2022-08-22T13:29:24.534Z,0.80
2022-08-22T13:32:33.829Z,1.05
2022-08-22T13:35:50.563Z,1.13
2022-08-22T13:39:01.748Z,0.90
2022-08-22T13:42:14.618Z,0.90
2022-08-22T13:45:34.100Z,0.88
2022-08-22T13:48:49.476Z,1.00
2022-08-22T13:51:57.215Z,1.02
2022-08-22T13:55:12.328Z,0.95
2022-08-22T13:58:25.622Z,0.95
2022-08-22T14:01:40.201Z,0.90
2022-08-22T14:04:45.212Z,1.08
2022-08-22T14:07:58.965Z,1.05
2022-08-22T14:11:11.655Z,1.02
2022-08-22T14:14:23.876Z,1.35
2022-08-22T14:17:33.699Z,1.00
2022-08-22T14:20:38.280Z,1.13
2022-08-22T14:23:44.650Z,1.25
2022-08-22T14:26:57.958Z,0.90
2022-08-22T14:30:06.818Z,0.90
2022-08-22T14:33:23.648Z,1.48
2022-08-22T14:36:35.475Z,0.88
2022-08-22T14:39:46.887Z,1.27
2022-08-22T14:42:53.556Z,1.00
2022-08-22T14:46:02.022Z,1.00
2022-08-22T14:49:16.246Z,0.70
2022-08-22T14:52:35.327Z,0.77
2022-08-22T14:55:39.371Z,1.17
2022-08-22T14:58:51.515Z,1.30
2022-08-22T15:01:58.177Z,1.00
2022-08-22T15:05:14.273Z,1.27
2022-08-22T15:08:27.495Z,1.25
2022-08-22T15:11:32.344Z,0.90
2022-08-22T15:14:51.919Z,1.05
2022-08-22T15:17:57.437Z,0.82
2022-08-22T15:21:06.942Z,1.10
2022-08-22T15:24:15.173Z,1.40
2022-08-22T15:27:19.891Z,1.05
2022-08-22T15:30:44.378Z,0.73
2022-08-22T15:33:49.785Z,1.10
2022-08-22T15:37:29.442Z,0.93
2022-08-22T15:40:40.410Z,1.00
2022-08-22T15:43:48.558Z,1.30
2022-08-22T15:47:00.999Z,0.80
2022-08-22T15:50:10.996Z,1.45
2022-08-22T15:53:23.937Z,0.85
2022-08-22T15:56:29.881Z,1.23
2022-08-22T15:59:47.851Z,0.88
2022-08-22T16:03:00.926Z,0.93
2022-08-22T16:06:08.049Z,1.05
2022-08-22T16:09:35.331Z,1.70
2022-08-22T16:12:41.895Z,1.13
2022-08-22T16:16:03.533Z,1.35
2022-08-22T16:19:22.601Z,1.00
2022-08-22T16:23:06.742Z,0.90
2022-08-22T16:26:15.055Z,1.00
2022-08-22T16:29:33.945Z,0.70
2022-08-22T16:32:56.967Z,0.70
2022-08-22T16:36:38.912Z,0.90
2022-08-22T16:39:45.864Z,0.90
2022-08-22T16:42:54.035Z,0.85
2022-08-22T16:45:56.964Z,1.02
2022-08-22T16:49:02.504Z,1.20
2022-08-22T16:52:40.615Z,0.90
2022-08-22T16:55:50.643Z,0.80
2022-08-22T16:59:23.809Z,1.00
2022-08-22T17:02:44.498Z,0.90
2022-08-22T17:06:02.931Z,1.20
2022-08-22T17:09:23.587Z,0.90
2022-08-22T17:12:44.821Z,0.70
2022-08-22T17:16:02.015Z,1.05
2022-08-22T17:19:22.307Z,0.85
2022-08-22T17:22:33.968Z,0.70
2022-08-22T17:25:49.870Z,1.08
2022-08-22T17:29:06.050Z,0.80
2022-08-22T17:32:18.281Z,1.30
2022-08-22T17:35:32.845Z,1.30
2022-08-22T17:38:47.536Z,1.17
2022-08-22T17:41:58.659Z,0.80
2022-08-22T17:45:09.529Z,1.00
2022-08-22T17:48:17.694Z,1.00
2022-08-22T17:51:28.725Z,0.90
2022-08-22T17:54:40.375Z,0.77
2022-08-22T17:57:51.304Z,0.77
2022-08-22T18:01:03.707Z,0.95
2022-08-22T18:04:09.023Z,1.13
2022-08-22T18:07:49.377Z,0.80
2022-08-22T18:11:00.090Z,1.20
2022-08-22T18:14:09.421Z,0.80
2022-08-22T18:17:31.630Z,0.90
2022-08-22T18:20:40.892Z,0.90
2022-08-22T18:23:47.550Z,0.90
2022-08-22T18:26:59.316Z,0.93
2022-08-22T18:30:07.645Z,0.77
2022-08-22T18:33:19.314Z,1.10
2022-08-22T18:36:31.344Z,1.05
2022-08-22T18:39:43.788Z,0.90
2022-08-22T18:42:51.841Z,0.93
2022-08-22T18:46:04.093Z,1.17
2022-08-22T18:49:33.667Z,1.00
2022-08-22T18:52:40.777Z,1.35
2022-08-22T18:55:56.500Z,1.10
2022-08-22T18:59:12.316Z,1.20
2022-08-22T19:02:55.935Z,1.42
2022-08-22T19:06:32.943Z,1.55
2022-08-22T19:09:59.864Z,1.38
2022-08-22T19:13:22.176Z,1.65
2022-08-22T19:16:44.677Z,1.75
2022-08-22T19:20:15.642Z,1.65
2022-08-22T19:23:46.829Z,1.35
2022-08-22T19:27:10.342Z,1.95
2022-08-22T19:30:41.803Z,2.15
2022-08-22T19:33:50.295Z,1.92
2022-08-22T19:37:34.096Z,1.77
2022-08-22T19:40:58.396Z,1.60
2022-08-22T19:44:01.793Z,1.60
2022-08-22T19:47:24.006Z,1.88
2022-08-22T19:50:33.942Z,1.80
2022-08-22T19:53:47.339Z,1.45
2022-08-22T19:57:06.937Z,1.73
2022-08-22T20:00:18.119Z,1.70
2022-08-22T20:03:32.369Z,1.52
2022-08-22T20:06:44.303Z,1.20
2022-08-22T20:09:57.112Z,1.35
2022-08-22T20:13:08.645Z,2.20
2022-08-22T20:16:19.335Z,1.73
2022-08-22T20:19:22.776Z,1.75
2022-08-22T20:22:30.123Z,1.40
2022-08-22T20:25:50.299Z,1.48
2022-08-22T20:28:55.759Z,1.65
2022-08-22T20:31:59.865Z,1.63
2022-08-22T20:35:05.612Z,1.50
2022-08-22T20:38:13.013Z,1.52
2022-08-22T20:41:22.287Z,1.45
2022-08-22T20:44:31.657Z,2.30
2022-08-22T20:47:41.312Z,1.30
2022-08-22T20:50:45.389Z,1.33
2022-08-22T20:53:53.425Z,1.67
2022-08-22T20:57:00.156Z,1.50
2022-08-22T21:00:11.557Z,1.27
2022-08-22T21:03:24.823Z,1.40
2022-08-22T21:06:34.963Z,1.52
2022-08-22T21:10:07.081Z,1.48
2022-08-22T21:13:13.653Z,1.60
2022-08-22T21:16:19.817Z,1.42
2022-08-22T21:19:29.781Z,1.58
2022-08-22T21:22:33.848Z,1.48
2022-08-22T21:25:56.594Z,1.27
2022-08-22T21:29:03.495Z,1.90
2022-08-22T21:32:19.807Z,1.45
2022-08-22T21:35:28.381Z,1.20
2022-08-22T21:38:31.341Z,1.42
2022-08-22T21:41:38.568Z,1.35
2022-08-22T21:44:43.203Z,1.55
2022-08-22T21:47:47.437Z,1.48
2022-08-22T21:50:50.484Z,1.20
2022-08-22T21:54:27.969Z,1.35
2022-08-22T21:57:36.503Z,1.55
2022-08-22T22:00:49.536Z,1.52
2022-08-22T22:03:54.290Z,1.10
2022-08-22T22:06:57.269Z,1.65
2022-08-22T22:10:00.570Z,1.92
2022-08-22T22:13:03.822Z,1.67
2022-08-22T22:16:08.703Z,1.42
2022-08-22T22:19:14.152Z,1.67
2022-08-22T22:22:17.933Z,1.52
2022-08-22T22:25:40.973Z,1.38
2022-08-22T22:28:48.296Z,1.63
2022-08-22T22:31:51.237Z,1.15
2022-08-22T22:34:55.527Z,1.67
2022-08-22T22:38:00.356Z,1.60
2022-08-22T22:41:04.101Z,1.67
2022-08-22T22:44:07.783Z,1.50
2022-08-22T22:47:11.102Z,1.90
2022-08-22T22:50:15.368Z,1.50
2022-08-22T22:53:19.360Z,1.48
2022-08-22T22:56:24.563Z,1.53
2022-08-22T22:59:27.645Z,1.50
2022-08-22T23:02:30.574Z,1.55
2022-08-22T23:05:35.274Z,1.75
2022-08-22T23:08:38.178Z,1.77
2022-08-22T23:11:41.127Z,1.97
2022-08-22T23:14:44.363Z,1.63
2022-08-22T23:17:47.347Z,2.03
2022-08-22T23:20:51.596Z,1.47
2022-08-22T23:23:57.070Z,2.03
2022-08-22T23:27:00.389Z,1.77
2022-08-22T23:30:03.467Z,2.03
2022-08-22T23:33:06.490Z,1.23
2022-08-22T23:36:17.030Z,1.60
2022-08-22T23:39:21.535Z,1.90
2022-08-22T23:42:24.428Z,1.97
2022-08-22T23:45:27.339Z,2.07
2022-08-22T23:48:30.283Z,1.77
2022-08-22T23:51:35.197Z,1.90
2022-08-22T23:54:38.200Z,1.90
2022-08-22T23:57:41.183Z,1.80
